Terminal Aerodrome Forecast
Issued by NWS

Home | Current Version | Previous Version | Text Only | Print | Product List | Glossary On
Versions: 1 2 3 4 5 6 7 8 9 10 11 12 13 14
000
FTUS45 KABQ 292334
TAFTCC
TAF
KTCC 292334Z 3000/3024 19015G25KT P6SM SCT090
     FM300200 03014G24KT P6SM VCTS SCT080CB BKN120
     FM300500 VRB05KT P6SM BKN130
     FM301700 22014KT P6SM SKC=

USA.gov is the U.S. government's official web portal to all federal, state and local government web resources and services.